sensor_id;sensor_type;location;lat;lon;timestamp;pressure;altitude;pressure_sealevel;temperature;humidity
15694;BME280;7947;48.834;9.132;2023-04-04T00:01:30;99034.59;;;3.26;54.76
15694;BME280;7947;48.834;9.132;2023-04-04T00:04:33;99030.13;;;3.13;54.16
15694;BME280;7947;48.834;9.132;2023-04-04T00:07:37;99032.97;;;3.18;55.60
15694;BME280;7947;48.834;9.132;2023-04-04T00:10:40;99021.97;;;3.08;55.41
15694;BME280;7947;48.834;9.132;2023-04-04T00:13:43;99016.28;;;3.05;55.68
15694;BME280;7947;48.834;9.132;2023-04-04T00:16:46;99018.94;;;3.05;55.26
15694;BME280;7947;48.834;9.132;2023-04-04T00:19:49;99013.00;;;3.16;56.30
15694;BME280;7947;48.834;9.132;2023-04-04T00:22:53;99008.13;;;3.13;54.85
15694;BME280;7947;48.834;9.132;2023-04-04T00:25:56;99004.66;;;3.06;54.81
15694;BME280;7947;48.834;9.132;2023-04-04T00:28:59;99011.59;;;3.07;55.80
15694;BME280;7947;48.834;9.132;2023-04-04T00:32:02;99013.03;;;3.09;55.48
15694;BME280;7947;48.834;9.132;2023-04-04T00:35:06;99008.94;;;3.13;57.05
15694;BME280;7947;48.834;9.132;2023-04-04T00:38:10;99002.00;;;3.12;56.48
15694;BME280;7947;48.834;9.132;2023-04-04T00:41:13;98999.75;;;3.03;57.62
15694;BME280;7947;48.834;9.132;2023-04-04T00:44:17;98997.72;;;2.98;57.69
15694;BME280;7947;48.834;9.132;2023-04-04T00:47:21;98994.28;;;2.91;58.36
15694;BME280;7947;48.834;9.132;2023-04-04T00:50:24;99004.25;;;2.76;59.10
15694;BME280;7947;48.834;9.132;2023-04-04T00:53:28;98999.19;;;2.74;59.35
15694;BME280;7947;48.834;9.132;2023-04-04T00:56:34;98995.72;;;2.61;59.39
15694;BME280;7947;48.834;9.132;2023-04-04T00:59:39;98991.41;;;2.60;59.11
15694;BME280;7947;48.834;9.132;2023-04-04T01:02:43;98997.31;;;2.49;59.62
15694;BME280;7947;48.834;9.132;2023-04-04T01:05:46;98985.28;;;2.40;59.59
15694;BME280;7947;48.834;9.132;2023-04-04T01:08:51;98982.63;;;2.33;60.03
15694;BME280;7947;48.834;9.132;2023-04-04T01:11:55;98985.47;;;2.25;60.15
15694;BME280;7947;48.834;9.132;2023-04-04T01:14:58;98985.06;;;2.28;59.05
15694;BME280;7947;48.834;9.132;2023-04-04T01:18:02;98984.66;;;2.31;58.88
15694;BME280;7947;48.834;9.132;2023-04-04T01:21:07;98982.66;;;2.40;58.26
15694;BME280;7947;48.834;9.132;2023-04-04T01:24:15;98989.59;;;2.47;58.36
15694;BME280;7947;48.834;9.132;2023-04-04T01:27:19;98987.56;;;2.49;58.51
15694;BME280;7947;48.834;9.132;2023-04-04T01:30:22;98981.44;;;2.55;58.74
15694;BME280;7947;48.834;9.132;2023-04-04T01:33:28;98985.72;;;2.56;57.92
15694;BME280;7947;48.834;9.132;2023-04-04T01:36:38;98973.91;;;2.59;57.34
15694;BME280;7947;48.834;9.132;2023-04-04T01:39:47;98974.53;;;2.61;58.21
15694;BME280;7947;48.834;9.132;2023-04-04T01:42:52;98977.78;;;2.63;57.17
15694;BME280;7947;48.834;9.132;2023-04-04T01:45:57;98974.53;;;2.61;56.99
15694;BME280;7947;48.834;9.132;2023-04-04T01:49:00;98974.31;;;2.62;56.98
15694;BME280;7947;48.834;9.132;2023-04-04T01:52:03;98985.13;;;2.61;56.98
15694;BME280;7947;48.834;9.132;2023-04-04T01:55:08;98972.91;;;2.66;57.37
15694;BME280;7947;48.834;9.132;2023-04-04T01:58:12;98971.47;;;2.64;57.59
15694;BME280;7947;48.834;9.132;2023-04-04T02:01:15;98970.22;;;2.60;57.13
15694;BME280;7947;48.834;9.132;2023-04-04T02:04:18;98963.94;;;2.61;57.58
15694;BME280;7947;48.834;9.132;2023-04-04T02:07:20;98962.09;;;2.55;56.99
15694;BME280;7947;48.834;9.132;2023-04-04T02:10:23;98961.47;;;2.59;57.20
15694;BME280;7947;48.834;9.132;2023-04-04T02:13:27;98967.59;;;2.60;56.80
15694;BME280;7947;48.834;9.132;2023-04-04T02:16:30;98962.72;;;2.57;57.95
15694;BME280;7947;48.834;9.132;2023-04-04T02:19:33;98970.22;;;2.60;57.21
15694;BME280;7947;48.834;9.132;2023-04-04T02:22:36;98966.97;;;2.58;56.66
15694;BME280;7947;48.834;9.132;2023-04-04T02:25:38;98976.75;;;2.51;57.30
15694;BME280;7947;48.834;9.132;2023-04-04T02:28:42;98970.03;;;2.48;57.75
15694;BME280;7947;48.834;9.132;2023-04-04T02:31:45;98968.41;;;2.47;56.95
15694;BME280;7947;48.834;9.132;2023-04-04T02:34:48;98972.88;;;2.47;56.98
15694;BME280;7947;48.834;9.132;2023-04-04T02:37:51;98984.06;;;2.42;57.93
15694;BME280;7947;48.834;9.132;2023-04-04T02:40:54;98976.75;;;2.38;57.88
15694;BME280;7947;48.834;9.132;2023-04-04T02:43:58;98974.72;;;2.40;57.56
15694;BME280;7947;48.834;9.132;2023-04-04T02:47:01;98976.91;;;2.36;58.35
15694;BME280;7947;48.834;9.132;2023-04-04T02:50:04;98968.19;;;2.36;57.63
15694;BME280;7947;48.834;9.132;2023-04-04T02:53:07;98963.06;;;2.34;57.37
15694;BME280;7947;48.834;9.132;2023-04-04T02:56:10;98966.75;;;2.33;58.22
15694;BME280;7947;48.834;9.132;2023-04-04T02:59:14;98957.78;;;2.34;57.77
15694;BME280;7947;48.834;9.132;2023-04-04T03:02:18;98966.75;;;2.20;58.23
15694;BME280;7947;48.834;9.132;2023-04-04T03:05:22;98965.31;;;2.18;58.84
15694;BME280;7947;48.834;9.132;2023-04-04T03:08:26;98956.16;;;2.20;58.72
15694;BME280;7947;48.834;9.132;2023-04-04T03:11:29;98965.47;;;2.10;58.73
15694;BME280;7947;48.834;9.132;2023-04-04T03:14:33;98960.38;;;2.02;59.04
15694;BME280;7947;48.834;9.132;2023-04-04T03:17:36;98963.22;;;2.00;59.80
15694;BME280;7947;48.834;9.132;2023-04-04T03:20:41;98955.25;;;1.94;60.03
15694;BME280;7947;48.834;9.132;2023-04-04T03:23:44;98955.03;;;1.82;60.39
15694;BME280;7947;48.834;9.132;2023-04-04T03:26:47;98953.00;;;1.77;60.61
15694;BME280;7947;48.834;9.132;2023-04-04T03:29:51;98959.88;;;1.72;60.92
15694;BME280;7947;48.834;9.132;2023-04-04T03:32:54;98962.53;;;1.78;60.31
15694;BME280;7947;48.834;9.132;2023-04-04T03:35:57;98955.22;;;1.80;60.89
15694;BME280;7947;48.834;9.132;2023-04-04T03:39:00;98962.16;;;1.81;61.24
15694;BME280;7947;48.834;9.132;2023-04-04T03:42:03;98956.03;;;1.81;60.85
15694;BME280;7947;48.834;9.132;2023-04-04T03:45:08;98953.78;;;1.71;60.47
15694;BME280;7947;48.834;9.132;2023-04-04T03:48:11;98959.22;;;1.63;60.47
15694;BME280;7947;48.834;9.132;2023-04-04T03:51:14;98958.56;;;1.55;60.89
15694;BME280;7947;48.834;9.132;2023-04-04T03:54:16;98957.97;;;1.53;60.94
15694;BME280;7947;48.834;9.132;2023-04-04T03:57:19;98956.50;;;1.44;61.55
15694;BME280;7947;48.834;9.132;2023-04-04T04:00:24;98960.53;;;1.33;61.23
15694;BME280;7947;48.834;9.132;2023-04-04T04:03:27;98958.41;;;1.22;61.48
15694;BME280;7947;48.834;9.132;2023-04-04T04:06:30;98959.03;;;1.18;61.81
15694;BME280;7947;48.834;9.132;2023-04-04T04:09:33;98961.81;;;1.10;62.20
15694;BME280;7947;48.834;9.132;2023-04-04T04:12:35;98963.97;;;1.00;62.25
15694;BME280;7947;48.834;9.132;2023-04-04T04:15:39;98963.13;;;0.93;62.58
15694;BME280;7947;48.834;9.132;2023-04-04T04:18:42;98963.25;;;0.84;62.69
15694;BME280;7947;48.834;9.132;2023-04-04T04:21:45;98971.19;;;0.84;62.92
15694;BME280;7947;48.834;9.132;2023-04-04T04:24:48;98964.72;;;0.87;63.01
15694;BME280;7947;48.834;9.132;2023-04-04T04:27:54;98973.47;;;0.94;63.09
15694;BME280;7947;48.834;9.132;2023-04-04T04:31:04;98965.94;;;0.91;62.68
15694;BME280;7947;48.834;9.132;2023-04-04T04:34:07;98968.78;;;0.89;63.06
15694;BME280;7947;48.834;9.132;2023-04-04T04:37:10;98966.09;;;0.83;63.42
15694;BME280;7947;48.834;9.132;2023-04-04T04:40:13;98958.34;;;0.81;63.71
15694;BME280;7947;48.834;9.132;2023-04-04T04:43:16;98966.88;;;0.77;63.29
15694;BME280;7947;48.834;9.132;2023-04-04T04:46:20;98972.59;;;0.59;63.60
15694;BME280;7947;48.834;9.132;2023-04-04T04:49:23;98977.25;;;0.57;63.89
15694;BME280;7947;48.834;9.132;2023-04-04T04:52:27;98978.50;;;0.61;64.11
15694;BME280;7947;48.834;9.132;2023-04-04T04:55:32;98977.06;;;0.59;64.15
15694;BME280;7947;48.834;9.132;2023-04-04T04:58:34;98973.25;;;0.61;64.41
15694;BME280;7947;48.834;9.132;2023-04-04T05:01:38;98974.81;;;0.56;64.23
15694;BME280;7947;48.834;9.132;2023-04-04T05:04:41;98974.75;;;0.49;64.60
15694;BME280;7947;48.834;9.132;2023-04-04T05:07:45;98981.09;;;0.55;64.72
15694;BME280;7947;48.834;9.132;2023-04-04T05:10:49;98981.09;;;0.55;64.25
15694;BME280;7947;48.834;9.132;2023-04-04T05:13:53;98968.94;;;0.60;64.58
15694;BME280;7947;48.834;9.132;2023-04-04T05:16:57;98984.75;;;0.54;64.77
15694;BME280;7947;48.834;9.132;2023-04-04T05:20:00;98985.59;;;0.61;65.12
15694;BME280;7947;48.834;9.132;2023-04-04T05:23:03;98986.94;;;0.50;64.82
15694;BME280;7947;48.834;9.132;2023-04-04T05:26:06;98986.38;;;0.55;64.78
15694;BME280;7947;48.834;9.132;2023-04-04T05:29:08;98988.31;;;0.67;65.43
15694;BME280;7947;48.834;9.132;2023-04-04T05:32:13;98989.56;;;0.71;64.76
15694;BME280;7947;48.834;9.132;2023-04-04T05:35:16;98992.63;;;0.75;65.08
15694;BME280;7947;48.834;9.132;2023-04-04T05:38:18;98994.69;;;0.79;65.20
15694;BME280;7947;48.834;9.132;2023-04-04T05:41:21;98996.13;;;0.82;65.61
15694;BME280;7947;48.834;9.132;2023-04-04T05:44:24;98998.78;;;0.82;65.89
15694;BME280;7947;48.834;9.132;2023-04-04T05:47:28;98993.78;;;0.93;65.77
15694;BME280;7947;48.834;9.132;2023-04-04T05:50:31;99003.00;;;1.04;65.54
15694;BME280;7947;48.834;9.132;2023-04-04T05:53:35;99002.88;;;1.12;65.59
15694;BME280;7947;48.834;9.132;2023-04-04T05:56:38;99002.53;;;1.22;65.26
15694;BME280;7947;48.834;9.132;2023-04-04T05:59:40;98997.13;;;1.36;65.25
15694;BME280;7947;48.834;9.132;2023-04-04T06:02:45;98990.91;;;1.57;63.47
15694;BME280;7947;48.834;9.132;2023-04-04T06:05:49;98994.88;;;1.74;62.22
15694;BME280;7947;48.834;9.132;2023-04-04T06:08:53;98996.78;;;1.93;61.23
15694;BME280;7947;48.834;9.132;2023-04-04T06:11:56;98992.56;;;2.12;61.24
15694;BME280;7947;48.834;9.132;2023-04-04T06:14:59;98999.91;;;2.29;60.27
15694;BME280;7947;48.834;9.132;2023-04-04T06:18:03;98996.69;;;2.40;59.85
15694;BME280;7947;48.834;9.132;2023-04-04T06:21:06;99000.19;;;2.60;59.08
15694;BME280;7947;48.834;9.132;2023-04-04T06:24:09;98998.56;;;2.72;58.12
15694;BME280;7947;48.834;9.132;2023-04-04T06:27:12;98988.59;;;2.74;58.60
15694;BME280;7947;48.834;9.132;2023-04-04T06:30:15;98981.44;;;2.95;59.38
15694;BME280;7947;48.834;9.132;2023-04-04T06:33:20;98983.88;;;3.09;57.98
15694;BME280;7947;48.834;9.132;2023-04-04T06:36:23;98991.59;;;3.30;57.70
15694;BME280;7947;48.834;9.132;2023-04-04T06:39:26;98980.72;;;3.58;57.58
15694;BME280;7947;48.834;9.132;2023-04-04T06:42:30;98990.22;;;3.72;54.17
15694;BME280;7947;48.834;9.132;2023-04-04T06:45:33;98985.72;;;3.79;54.28
15694;BME280;7947;48.834;9.132;2023-04-04T06:48:37;98993.34;;;4.07;53.16
15694;BME280;7947;48.834;9.132;2023-04-04T06:51:40;98985.53;;;4.49;52.77
15694;BME280;7947;48.834;9.132;2023-04-04T06:54:43;98981.28;;;5.40;50.48
15694;BME280;7947;48.834;9.132;2023-04-04T06:57:46;98980.97;;;6.21;46.75
15694;BME280;7947;48.834;9.132;2023-04-04T07:00:49;98970.78;;;6.71;45.12
15694;BME280;7947;48.834;9.132;2023-04-04T07:03:53;98967.56;;;6.92;43.74
15694;BME280;7947;48.834;9.132;2023-04-04T07:06:56;98964.28;;;7.71;43.51
15694;BME280;7947;48.834;9.132;2023-04-04T07:09:59;98961.03;;;8.81;41.27
15694;BME280;7947;48.834;9.132;2023-04-04T07:13:02;98960.38;;;10.06;37.82
15694;BME280;7947;48.834;9.132;2023-04-04T07:16:05;98961.72;;;10.83;36.91
15694;BME280;7947;48.834;9.132;2023-04-04T07:19:09;98954.13;;;11.07;35.40
15694;BME280;7947;48.834;9.132;2023-04-04T07:22:12;98959.84;;;10.57;36.06
15694;BME280;7947;48.834;9.132;2023-04-04T07:25:15;98956.66;;;9.85;36.36
15694;BME280;7947;48.834;9.132;2023-04-04T07:28:18;98956.34;;;9.05;39.27
15694;BME280;7947;48.834;9.132;2023-04-04T07:31:21;98965.81;;;8.63;39.68
15694;BME280;7947;48.834;9.132;2023-04-04T07:34:25;98964.25;;;8.22;41.01
15694;BME280;7947;48.834;9.132;2023-04-04T07:37:28;98968.94;;;8.03;41.50
15694;BME280;7947;48.834;9.132;2023-04-04T07:40:31;98956.16;;;7.77;41.65
15694;BME280;7947;48.834;9.132;2023-04-04T07:43:33;98971.41;;;7.42;41.78
15694;BME280;7947;48.834;9.132;2023-04-04T07:46:36;98962.25;;;7.26;42.74
15694;BME280;7947;48.834;9.132;2023-04-04T07:49:41;98965.97;;;7.14;43.90
15694;BME280;7947;48.834;9.132;2023-04-04T07:52:47;98970.81;;;6.82;42.41
15694;BME280;7947;48.834;9.132;2023-04-04T07:55:51;98969.34;;;6.45;43.37
15694;BME280;7947;48.834;9.132;2023-04-04T07:58:54;98966.91;;;6.14;43.67
15694;BME280;7947;48.834;9.132;2023-04-04T08:01:57;98965.09;;;5.96;43.98
15694;BME280;7947;48.834;9.132;2023-04-04T08:05:01;98961.25;;;5.92;44.89
15694;BME280;7947;48.834;9.132;2023-04-04T08:08:04;98958.72;;;6.15;44.35
15694;BME280;7947;48.834;9.132;2023-04-04T08:11:07;98969.78;;;6.30;44.42
15694;BME280;7947;48.834;9.132;2023-04-04T08:14:10;98969.66;;;6.37;43.87
15694;BME280;7947;48.834;9.132;2023-04-04T08:17:13;98960.91;;;6.48;43.22
15694;BME280;7947;48.834;9.132;2023-04-04T08:20:20;98966.00;;;6.50;44.41
15694;BME280;7947;48.834;9.132;2023-04-04T08:23:23;98958.06;;;6.73;44.00
15694;BME280;7947;48.834;9.132;2023-04-04T08:26:26;98954.59;;;6.95;42.69
15694;BME280;7947;48.834;9.132;2023-04-04T08:29:29;98951.47;;;6.98;43.23
15694;BME280;7947;48.834;9.132;2023-04-04T08:32:33;98955.66;;;6.94;42.31
15694;BME280;7947;48.834;9.132;2023-04-04T08:35:37;98957.25;;;7.07;41.52
15694;BME280;7947;48.834;9.132;2023-04-04T08:38:40;98962.34;;;7.08;41.60
15694;BME280;7947;48.834;9.132;2023-04-04T08:41:44;98965.84;;;6.97;42.39
15694;BME280;7947;48.834;9.132;2023-04-04T08:44:48;98965.72;;;6.92;43.23
15694;BME280;7947;48.834;9.132;2023-04-04T08:47:55;98961.09;;;6.99;43.41
15694;BME280;7947;48.834;9.132;2023-04-04T08:51:02;98960.06;;;7.23;42.41
15694;BME280;7947;48.834;9.132;2023-04-04T08:54:06;98962.50;;;7.25;41.14
15694;BME280;7947;48.834;9.132;2023-04-04T08:57:09;98958.31;;;7.29;42.22
15694;BME280;7947;48.834;9.132;2023-04-04T09:00:15;98966.41;;;7.46;41.02
15694;BME280;7947;48.834;9.132;2023-04-04T09:03:22;98961.38;;;7.84;41.09
15694;BME280;7947;48.834;9.132;2023-04-04T09:06:27;98962.38;;;8.23;40.51
15694;BME280;7947;48.834;9.132;2023-04-04T09:09:30;98961.09;;;8.53;40.42
15694;BME280;7947;48.834;9.132;2023-04-04T09:12:35;98952.28;;;8.86;39.37
15694;BME280;7947;48.834;9.132;2023-04-04T09:15:40;98951.13;;;8.98;38.20
15694;BME280;7947;48.834;9.132;2023-04-04T09:18:43;98945.06;;;9.03;38.77
15694;BME280;7947;48.834;9.132;2023-04-04T09:21:48;98959.59;;;9.07;39.21
15694;BME280;7947;48.834;9.132;2023-04-04T09:24:51;98968.72;;;8.94;37.90
15694;BME280;7947;48.834;9.132;2023-04-04T09:27:54;98940.59;;;9.08;37.50
15694;BME280;7947;48.834;9.132;2023-04-04T09:30:59;98953.06;;;9.20;40.81
15694;BME280;7947;48.834;9.132;2023-04-04T09:34:02;98945.19;;;9.30;37.37
15694;BME280;7947;48.834;9.132;2023-04-04T09:37:07;98956.47;;;9.32;37.74
15694;BME280;7947;48.834;9.132;2023-04-04T09:40:12;98938.38;;;9.60;36.68
15694;BME280;7947;48.834;9.132;2023-04-04T09:43:15;98955.53;;;9.81;38.14
15694;BME280;7947;48.834;9.132;2023-04-04T09:46:18;98947.09;;;9.94;36.50
15694;BME280;7947;48.834;9.132;2023-04-04T09:49:23;98935.41;;;10.22;36.63
15694;BME280;7947;48.834;9.132;2023-04-04T09:52:30;98947.19;;;9.77;35.66
15694;BME280;7947;48.834;9.132;2023-04-04T09:55:36;98953.00;;;9.53;36.54
15694;BME280;7947;48.834;9.132;2023-04-04T09:58:39;98957.63;;;9.19;37.41
15694;BME280;7947;48.834;9.132;2023-04-04T10:02:01;98940.81;;;9.40;38.72
15694;BME280;7947;48.834;9.132;2023-04-04T10:05:04;98946.22;;;9.45;37.09
15694;BME280;7947;48.834;9.132;2023-04-04T10:08:16;98948.47;;;9.53;35.80
15694;BME280;7947;48.834;9.132;2023-04-04T10:11:29;98945.16;;;9.68;35.43
15694;BME280;7947;48.834;9.132;2023-04-04T10:14:33;98949.09;;;9.22;34.67
15694;BME280;7947;48.834;9.132;2023-04-04T10:17:37;98942.97;;;9.43;36.83
15694;BME280;7947;48.834;9.132;2023-04-04T10:20:41;98947.16;;;9.99;38.37
15694;BME280;7947;48.834;9.132;2023-04-04T10:23:47;98939.53;;;10.34;36.35
15694;BME280;7947;48.834;9.132;2023-04-04T10:26:50;98936.50;;;10.52;35.91
15694;BME280;7947;48.834;9.132;2023-04-04T10:29:54;98933.72;;;10.42;35.76
15694;BME280;7947;48.834;9.132;2023-04-04T10:33:06;98934.16;;;10.61;36.53
15694;BME280;7947;48.834;9.132;2023-04-04T10:36:10;98930.19;;;10.68;35.25
15694;BME280;7947;48.834;9.132;2023-04-04T10:39:20;98918.25;;;10.86;35.44
15694;BME280;7947;48.834;9.132;2023-04-04T10:42:30;98913.19;;;11.31;35.91
15694;BME280;7947;48.834;9.132;2023-04-04T10:45:35;98917.53;;;11.32;33.49
15694;BME280;7947;48.834;9.132;2023-04-04T10:48:40;98929.78;;;11.18;33.16
15694;BME280;7947;48.834;9.132;2023-04-04T10:51:43;98924.97;;;11.20;34.74
15694;BME280;7947;48.834;9.132;2023-04-04T10:55:00;98919.88;;;11.29;35.17
15694;BME280;7947;48.834;9.132;2023-04-04T10:58:04;98913.31;;;11.51;35.86
15694;BME280;7947;48.834;9.132;2023-04-04T11:01:08;98912.28;;;11.62;33.49
15694;BME280;7947;48.834;9.132;2023-04-04T11:04:15;98913.50;;;11.35;32.34
15694;BME280;7947;48.834;9.132;2023-04-04T11:07:26;98910.66;;;11.10;34.97
15694;BME280;7947;48.834;9.132;2023-04-04T11:10:32;98905.00;;;11.06;35.65
15694;BME280;7947;48.834;9.132;2023-04-04T11:13:36;98898.41;;;11.29;34.34
15694;BME280;7947;48.834;9.132;2023-04-04T11:16:45;98903.34;;;11.47;34.64
15694;BME280;7947;48.834;9.132;2023-04-04T11:19:57;98901.22;;;11.49;32.40
15694;BME280;7947;48.834;9.132;2023-04-04T11:23:14;98912.78;;;11.54;35.64
15694;BME280;7947;48.834;9.132;2023-04-04T11:26:33;98898.94;;;11.77;35.22
15694;BME280;7947;48.834;9.132;2023-04-04T11:29:49;98890.97;;;11.98;35.42
15694;BME280;7947;48.834;9.132;2023-04-04T11:32:56;98895.81;;;12.11;34.27
15694;BME280;7947;48.834;9.132;2023-04-04T11:39:49;98891.78;;;11.41;33.91
15694;BME280;7947;48.834;9.132;2023-04-04T11:42:59;98887.72;;;11.39;33.82
15694;BME280;7947;48.834;9.132;2023-04-04T11:46:04;98893.28;;;11.22;33.56
15694;BME280;7947;48.834;9.132;2023-04-04T11:49:09;98881.53;;;11.33;33.20
15694;BME280;7947;48.834;9.132;2023-04-04T11:52:14;98885.81;;;11.34;33.41
15694;BME280;7947;48.834;9.132;2023-04-04T11:55:19;98883.34;;;11.23;33.66
15694;BME280;7947;48.834;9.132;2023-04-04T11:58:25;98889.78;;;11.22;34.75
15694;BME280;7947;48.834;9.132;2023-04-04T12:01:28;98888.13;;;11.11;35.90
15694;BME280;7947;48.834;9.132;2023-04-04T12:04:30;98893.84;;;11.29;33.10
15694;BME280;7947;48.834;9.132;2023-04-04T12:07:37;98883.78;;;11.51;33.05
15694;BME280;7947;48.834;9.132;2023-04-04T12:10:41;98876.63;;;11.72;33.90
15694;BME280;7947;48.834;9.132;2023-04-04T12:13:49;98873.47;;;12.00;33.62
15694;BME280;7947;48.834;9.132;2023-04-04T12:16:53;98871.91;;;12.09;33.83
15694;BME280;7947;48.834;9.132;2023-04-04T12:19:57;98875.09;;;12.01;32.58
15694;BME280;7947;48.834;9.132;2023-04-04T12:22:59;98866.72;;;11.88;33.80
15694;BME280;7947;48.834;9.132;2023-04-04T12:26:03;98871.06;;;11.99;32.58
15694;BME280;7947;48.834;9.132;2023-04-04T12:29:08;98874.28;;;12.01;35.76
15694;BME280;7947;48.834;9.132;2023-04-04T12:32:14;98867.56;;;11.98;34.58
15694;BME280;7947;48.834;9.132;2023-04-04T12:35:21;98861.16;;;12.19;33.27
15694;BME280;7947;48.834;9.132;2023-04-04T12:38:24;98857.13;;;12.37;32.53
15694;BME280;7947;48.834;9.132;2023-04-04T12:41:27;98851.75;;;12.67;35.00
15694;BME280;7947;48.834;9.132;2023-04-04T12:44:33;98852.25;;;12.89;33.39
15694;BME280;7947;48.834;9.132;2023-04-04T12:47:36;98847.72;;;12.75;31.83
15694;BME280;7947;48.834;9.132;2023-04-04T12:50:50;98846.09;;;12.58;30.62
15694;BME280;7947;48.834;9.132;2023-04-04T12:53:53;98839.41;;;12.46;32.62
15694;BME280;7947;48.834;9.132;2023-04-04T12:56:57;98834.53;;;12.43;32.39
15694;BME280;7947;48.834;9.132;2023-04-04T13:00:03;98831.84;;;12.68;30.95
15694;BME280;7947;48.834;9.132;2023-04-04T13:03:08;98829.16;;;12.63;32.74
15694;BME280;7947;48.834;9.132;2023-04-04T13:06:12;98830.72;;;12.94;31.33
15694;BME280;7947;48.834;9.132;2023-04-04T13:09:15;98832.41;;;12.60;30.87
15694;BME280;7947;48.834;9.132;2023-04-04T13:12:19;98827.81;;;12.45;30.55
15694;BME280;7947;48.834;9.132;2023-04-04T13:18:42;98822.69;;;12.49;33.23
15694;BME280;7947;48.834;9.132;2023-04-04T13:21:45;98817.56;;;12.83;31.61
15694;BME280;7947;48.834;9.132;2023-04-04T13:24:47;98810.28;;;12.78;30.95
15694;BME280;7947;48.834;9.132;2023-04-04T13:27:50;98811.63;;;12.76;30.56
15694;BME280;7947;48.834;9.132;2023-04-04T13:30:54;98803.03;;;12.89;31.53
15694;BME280;7947;48.834;9.132;2023-04-04T13:33:57;98806.25;;;12.91;31.62
15694;BME280;7947;48.834;9.132;2023-04-04T13:37:00;98799.53;;;12.78;31.67
15694;BME280;7947;48.834;9.132;2023-04-04T13:40:04;98794.72;;;12.65;30.96
15694;BME280;7947;48.834;9.132;2023-04-04T13:43:06;98794.41;;;12.87;32.06
15694;BME280;7947;48.834;9.132;2023-04-04T13:46:13;98784.91;;;13.19;31.65
15694;BME280;7947;48.834;9.132;2023-04-04T13:49:16;98781.66;;;13.27;30.36
15694;BME280;7947;48.834;9.132;2023-04-04T13:52:19;98785.97;;;13.23;30.13
15694;BME280;7947;48.834;9.132;2023-04-04T13:55:22;98790.50;;;13.33;30.64
15694;BME280;7947;48.834;9.132;2023-04-04T13:58:25;98781.97;;;13.16;31.51
15694;BME280;7947;48.834;9.132;2023-04-04T14:01:29;98780.88;;;13.17;31.95
15694;BME280;7947;48.834;9.132;2023-04-04T14:04:32;98776.22;;;13.37;31.56
15694;BME280;7947;48.834;9.132;2023-04-04T14:07:35;98776.50;;;13.26;29.07
15694;BME280;7947;48.834;9.132;2023-04-04T14:10:38;98774.84;;;13.40;31.33
15694;BME280;7947;48.834;9.132;2023-04-04T14:13:40;98769.44;;;13.45;30.49
15694;BME280;7947;48.834;9.132;2023-04-04T14:16:44;98766.19;;;13.48;30.64
15694;BME280;7947;48.834;9.132;2023-04-04T14:19:47;98768.09;;;13.42;30.76
15694;BME280;7947;48.834;9.132;2023-04-04T14:22:50;98772.16;;;13.45;30.79
15694;BME280;7947;48.834;9.132;2023-04-04T14:25:53;98769.03;;;13.13;30.78
15694;BME280;7947;48.834;9.132;2023-04-04T14:28:55;98762.59;;;13.14;31.21
15694;BME280;7947;48.834;9.132;2023-04-04T14:32:00;98768.19;;;13.22;30.75
15694;BME280;7947;48.834;9.132;2023-04-04T14:35:03;98773.63;;;13.02;30.18
15694;BME280;7947;48.834;9.132;2023-04-04T14:38:06;98775.25;;;13.03;31.18
15694;BME280;7947;48.834;9.132;2023-04-04T14:41:09;98775.84;;;12.70;30.43
15694;BME280;7947;48.834;9.132;2023-04-04T14:44:11;98771.84;;;12.67;31.25
15694;BME280;7947;48.834;9.132;2023-04-04T14:47:16;98762.91;;;12.82;30.69
15694;BME280;7947;48.834;9.132;2023-04-04T14:50:18;98770.41;;;13.05;31.51
15694;BME280;7947;48.834;9.132;2023-04-04T14:53:21;98769.50;;;13.30;30.40
15694;BME280;7947;48.834;9.132;2023-04-04T14:56:24;98765.25;;;13.24;30.39
15694;BME280;7947;48.834;9.132;2023-04-04T14:59:27;98753.91;;;13.27;30.35
15694;BME280;7947;48.834;9.132;2023-04-04T15:02:31;98754.88;;;13.51;30.86
15694;BME280;7947;48.834;9.132;2023-04-04T15:05:34;98753.50;;;13.53;30.78
15694;BME280;7947;48.834;9.132;2023-04-04T15:08:37;98754.00;;;13.55;29.86
15694;BME280;7947;48.834;9.132;2023-04-04T15:11:39;98748.09;;;13.58;30.70
15694;BME280;7947;48.834;9.132;2023-04-04T15:14:42;98760.75;;;13.58;30.29
15694;BME280;7947;48.834;9.132;2023-04-04T15:17:46;98754.91;;;13.41;29.78
15694;BME280;7947;48.834;9.132;2023-04-04T15:20:49;98754.75;;;13.17;30.20
15694;BME280;7947;48.834;9.132;2023-04-04T15:23:52;98751.28;;;13.12;31.04
15694;BME280;7947;48.834;9.132;2023-04-04T15:26:54;98746.47;;;12.99;31.63
15694;BME280;7947;48.834;9.132;2023-04-04T15:29:58;98754.25;;;13.00;31.36
15694;BME280;7947;48.834;9.132;2023-04-04T15:33:02;98740.38;;;12.43;30.73
15694;BME280;7947;48.834;9.132;2023-04-04T15:36:05;98749.28;;;12.48;31.52
15694;BME280;7947;48.834;9.132;2023-04-04T15:39:08;98744.69;;;12.49;31.72
15694;BME280;7947;48.834;9.132;2023-04-04T15:42:11;98747.66;;;12.37;30.93
15694;BME280;7947;48.834;9.132;2023-04-04T15:45:14;98738.78;;;12.22;32.71
15694;BME280;7947;48.834;9.132;2023-04-04T15:48:18;98747.97;;;12.31;32.49
15694;BME280;7947;48.834;9.132;2023-04-04T15:51:21;98750.59;;;12.41;31.34
15694;BME280;7947;48.834;9.132;2023-04-04T15:54:25;98732.88;;;12.30;32.98
15694;BME280;7947;48.834;9.132;2023-04-04T15:57:29;98743.63;;;12.30;32.41
15694;BME280;7947;48.834;9.132;2023-04-04T16:00:32;98737.47;;;12.24;31.81
15694;BME280;7947;48.834;9.132;2023-04-04T16:03:36;98742.03;;;11.99;32.16
15694;BME280;7947;48.834;9.132;2023-04-04T16:06:39;98738.53;;;11.83;32.17
15694;BME280;7947;48.834;9.132;2023-04-04T16:09:42;98749.75;;;11.60;32.53
15694;BME280;7947;48.834;9.132;2023-04-04T16:12:44;98737.31;;;11.29;31.65
15694;BME280;7947;48.834;9.132;2023-04-04T16:15:47;98737.31;;;11.29;33.24
15694;BME280;7947;48.834;9.132;2023-04-04T16:18:52;98737.66;;;11.47;33.88
15694;BME280;7947;48.834;9.132;2023-04-04T16:21:54;98727.72;;;11.58;36.27
15694;BME280;7947;48.834;9.132;2023-04-04T16:24:57;98731.47;;;11.62;35.11
15694;BME280;7947;48.834;9.132;2023-04-04T16:28:00;98731.50;;;11.57;33.41
15694;BME280;7947;48.834;9.132;2023-04-04T16:31:03;98729.84;;;11.56;33.30
15694;BME280;7947;48.834;9.132;2023-04-04T16:34:08;98732.28;;;11.52;36.70
15694;BME280;7947;48.834;9.132;2023-04-04T16:37:10;98733.03;;;11.33;35.02
15694;BME280;7947;48.834;9.132;2023-04-04T16:40:13;98727.25;;;10.94;35.73
15694;BME280;7947;48.834;9.132;2023-04-04T16:43:16;98728.06;;;10.89;34.93